Time;durP1;ratioP1;P1;durP2;ratioP2;P2;SDS_P1;SDS_P2;PMS_P1;PMS_P2;Temp;Humidity;BMP_temperature;BMP_pressure;BME280_temperature;BME280_humidity;BME280_pressure;Samples;Min_cycle;Max_cycle;Signal;HPM_P1;HPM_P2
2021/10/30 06:48:55;;;;;;;10.93;8.27;;;11.50;98.90;;;;;;509205;27;20493;-82
2021/10/30 06:51:22;;;;;;;11.93;8.57;;;11.50;98.90;;;;;;4890649;29;20123;-82
2021/10/30 06:53:49;;;;;;;13.40;9.03;;;11.50;98.90;;;;;;4892360;29;20055;-81
2021/10/30 06:56:14;;;;;;;11.80;8.40;;;11.50;98.90;;;;;;4921108;29;20041;-82
2021/10/30 06:58:41;;;;;;;13.60;8.70;;;11.50;98.90;;;;;;4921291;29;20179;-81
2021/10/30 07:01:07;;;;;;;11.47;8.67;;;11.50;98.90;;;;;;4933573;29;20119;-84
2021/10/30 07:03:33;;;;;;;14.33;8.80;;;11.50;98.90;;;;;;4883279;29;20048;-82
2021/10/30 07:05:59;;;;;;;13.50;8.30;;;11.60;98.90;;;;;;4914875;29;20504;-84
2021/10/30 07:08:25;;;;;;;11.50;8.47;;;11.50;98.90;;;;;;4900424;29;20127;-86
2021/10/30 07:10:52;;;;;;;13.37;9.00;;;11.60;98.90;;;;;;4918036;29;20028;-87
2021/10/30 07:13:18;;;;;;;10.83;8.20;;;11.60;98.90;;;;;;4960795;23;20055;-87
2021/10/30 07:15:44;;;;;;;10.33;8.10;;;11.60;98.90;;;;;;4900087;29;20144;-86
2021/10/30 07:18:12;;;;;;;13.13;8.13;;;11.60;98.90;;;;;;4921878;29;20067;-86
2021/10/30 07:20:37;;;;;;;11.00;8.30;;;11.60;98.90;;;;;;4890420;29;20067;-86
2021/10/30 07:23:04;;;;;;;10.67;7.80;;;11.60;99.00;;;;;;4883473;29;20555;-85
2021/10/30 07:25:30;;;;;;;10.27;7.93;;;11.60;99.00;;;;;;4898828;29;20047;-83
2021/10/30 07:27:55;;;;;;;8.60;7.33;;;11.70;99.00;;;;;;4900747;29;20119;-84
2021/10/30 07:30:23;;;;;;;9.80;7.80;;;11.70;99.00;;;;;;4904145;29;20071;-83
2021/10/30 07:32:54;;;;;;;8.90;7.43;;;11.70;99.00;;;;;;4912186;29;20318;-83
2021/10/30 07:35:21;;;;;;;9.17;7.30;;;11.70;99.00;;;;;;4907589;29;20028;-82
2021/10/30 07:37:48;;;;;;;10.10;7.80;;;11.80;99.00;;;;;;4916191;29;20127;-82
2021/10/30 07:40:14;;;;;;;8.63;7.07;;;11.80;99.00;;;;;;4903564;29;20543;-82
2021/10/30 07:42:44;;;;;;;9.57;7.13;;;11.80;99.00;;;;;;4906391;29;20052;-82
2021/10/30 07:45:10;;;;;;;10.90;7.27;;;11.80;99.00;;;;;;4910117;29;20028;-83
2021/10/30 07:47:38;;;;;;;9.60;7.33;;;11.80;99.00;;;;;;4899086;29;20083;-84
2021/10/30 07:50:04;;;;;;;11.57;7.10;;;11.90;99.00;;;;;;4917379;29;20083;-83
2021/10/30 07:52:30;;;;;;;8.83;6.87;;;11.90;98.90;;;;;;4918270;29;20040;-84
2021/10/30 07:54:56;;;;;;;8.60;6.60;;;11.90;98.90;;;;;;4897035;29;20044;-83
2021/10/30 07:57:22;;;;;;;9.00;6.70;;;12.00;99.00;;;;;;4902043;29;20055;-82
2021/10/30 07:59:50;;;;;;;8.30;7.00;;;12.00;98.90;;;;;;4887223;29;20039;-80
2021/10/30 08:02:18;;;;;;;8.60;6.47;;;12.00;98.90;;;;;;4887667;29;20040;-82
2021/10/30 08:04:44;;;;;;;7.03;6.30;;;12.00;98.90;;;;;;4920149;29;20580;-81
2021/10/30 08:07:09;;;;;;;12.27;6.10;;;12.00;98.90;;;;;;4919162;29;20040;-83
2021/10/30 08:09:35;;;;;;;9.17;6.17;;;12.00;98.80;;;;;;4887636;29;20484;-79
2021/10/30 08:12:02;;;;;;;10.27;6.53;;;12.10;98.80;;;;;;4903755;29;20058;-79
2021/10/30 08:14:27;;;;;;;6.90;5.23;;;12.20;98.80;;;;;;4905266;29;20037;-80
2021/10/30 08:16:53;;;;;;;9.53;6.47;;;12.20;98.70;;;;;;4905049;29;20116;-78
2021/10/30 08:19:19;;;;;;;9.37;5.70;;;12.20;98.70;;;;;;4900717;29;20125;-78
2021/10/30 08:21:45;;;;;;;7.80;5.20;;;12.20;98.60;;;;;;4914351;29;20040;-79
2021/10/30 08:24:11;;;;;;;6.13;4.67;;;12.20;98.60;;;;;;4892130;29;20056;-80
2021/10/30 08:26:37;;;;;;;10.73;5.53;;;12.30;98.50;;;;;;4909552;29;20047;-80
2021/10/30 08:29:03;;;;;;;7.97;5.10;;;12.30;98.50;;;;;;4906663;29;20029;-80
2021/10/30 08:31:29;;;;;;;7.63;5.03;;;12.30;98.50;;;;;;4882882;29;20497;-80
2021/10/30 08:33:57;;;;;;;6.77;5.33;;;12.40;98.40;;;;;;4909633;29;20036;-79
2021/10/30 08:36:23;;;;;;;8.00;4.83;;;12.40;98.40;;;;;;4930658;29;20032;-79
2021/10/30 08:38:49;;;;;;;8.40;4.73;;;12.40;98.40;;;;;;4917687;29;20067;-79
2021/10/30 08:41:14;;;;;;;8.10;4.83;;;12.40;98.40;;;;;;4885981;29;20147;-80
2021/10/30 08:43:41;;;;;;;6.63;4.40;;;12.50;98.40;;;;;;4900359;29;20126;-80
2021/10/30 08:46:07;;;;;;;8.70;4.87;;;12.40;98.40;;;;;;4907002;29;20042;-80
2021/10/30 08:48:33;;;;;;;6.27;4.27;;;12.50;98.40;;;;;;4908821;29;20043;-79
2021/10/30 08:51:01;;;;;;;8.10;5.63;;;12.50;98.40;;;;;;4939291;29;20046;-81
2021/10/30 08:53:28;;;;;;;6.47;4.33;;;12.50;98.40;;;;;;4922189;29;20044;-81
2021/10/30 08:55:54;;;;;;;5.60;4.60;;;12.50;98.40;;;;;;4889451;29;20048;-80
2021/10/30 08:58:20;;;;;;;5.07;4.17;;;12.50;98.40;;;;;;4902623;29;20501;-81
2021/10/30 09:00:51;;;;;;;7.80;4.27;;;12.60;98.40;;;;;;4901654;29;20404;-80
2021/10/30 09:03:19;;;;;;;7.00;5.00;;;12.60;98.60;;;;;;4900132;29;20032;-80
2021/10/30 09:05:48;;;;;;;5.78;4.30;;;12.60;98.50;;;;;;4901460;29;20044;-83
2021/10/30 09:08:16;;;;;;;5.33;4.33;;;12.50;98.50;;;;;;4901769;29;20056;-83
2021/10/30 09:10:50;;;;;;;6.82;4.78;;;12.60;98.50;;;;;;4873970;29;20044;-81
2021/10/30 09:13:20;;;;;;;5.60;3.78;;;12.60;98.50;;;;;;4899476;29;20052;-82
2021/10/30 09:15:47;;;;;;;6.95;4.00;;;12.60;98.50;;;;;;4901017;29;20141;-82
2021/10/30 09:18:22;;;;;;;5.47;4.10;;;12.70;98.50;;;;;;4919693;29;20048;-82
2021/10/30 09:20:48;;;;;;;5.22;3.88;;;12.70;98.50;;;;;;4904621;29;20040;-80
2021/10/30 09:23:21;;;;;;;5.18;4.07;;;12.70;98.50;;;;;;4905557;29;20047;-82
2021/10/30 09:25:54;;;;;;;;;;;12.70;98.50;;;;;;4906373;29;20072;-82
2021/10/30 09:28:25;;;;;;;4.60;4.03;;;12.70;98.50;;;;;;4898521;29;19912;-84
2021/10/30 09:31:03;;;;;;;5.90;4.47;;;12.70;98.50;;;;;;4907336;29;20168;-81
2021/10/30 09:33:31;;;;;;;5.30;4.30;;;12.70;98.50;;;;;;4901323;29;20040;-80
2021/10/30 09:36:08;;;;;;;5.82;4.20;;;12.80;98.60;;;;;;4901804;29;20044;-81
2021/10/30 09:38:37;;;;;;;5.95;4.15;;;12.80;98.60;;;;;;4917406;29;20059;-80
2021/10/30 09:41:18;;;;;;;5.40;4.85;;;12.80;98.60;;;;;;4935579;29;20028;-80
2021/10/30 09:43:53;;;;;;;6.53;4.50;;;12.90;98.70;;;;;;4903919;29;20052;-80
2021/10/30 09:46:19;;;;;;;5.65;4.10;;;12.90;98.60;;;;;;4885044;29;20406;-81
2021/10/30 09:48:45;;;;;;;9.30;5.20;;;12.90;98.50;;;;;;4900821;29;20044;-80
2021/10/30 09:51:30;;;;;;;6.47;5.38;;;12.90;98.60;;;;;;4906421;29;20040;-79
2021/10/30 09:53:55;;;;;;;5.63;4.25;;;12.90;98.60;;;;;;4917532;29;20035;-79
2021/10/30 09:56:21;;;;;;;5.75;4.90;;;12.90;98.60;;;;;;4901989;29;20112;-81
2021/10/30 09:58:47;;;;;;;7.55;5.28;;;13.00;98.70;;;;;;4869880;29;20059;-80
2021/10/30 10:01:20;;;;;;;5.63;4.50;;;12.90;98.70;;;;;;4900140;29;20036;-81
2021/10/30 10:03:50;;;;;;;;;;;12.90;98.70;;;;;;4902066;29;20131;-80
2021/10/30 10:06:18;;;;;;;9.75;4.68;;;13.00;98.70;;;;;;4898327;29;19918;-78
2021/10/30 10:08:47;;;;;;;6.88;3.83;;;13.00;98.70;;;;;;4912324;29;20115;-81
2021/10/30 10:11:15;;;;;;;7.05;4.43;;;13.00;98.60;;;;;;4887873;29;20130;-80
2021/10/30 10:13:43;;;;;;;4.43;3.63;;;13.00;98.50;;;;;;4883488;29;20044;-79
2021/10/30 10:16:19;;;;;;;6.25;4.03;;;13.00;98.40;;;;;;4900571;29;20083;-80
2021/10/30 10:18:46;;;;;;;5.28;4.15;;;13.00;98.40;;;;;;4913341;29;20741;-80
2021/10/30 10:21:20;;;;;;;3.22;2.85;;;13.00;98.40;;;;;;4920422;29;20120;-81
2021/10/30 10:23:46;;;;;;;5.25;3.63;;;13.10;98.40;;;;;;4919894;29;20543;-81
2021/10/30 10:26:12;;;;;;;4.35;3.35;;;13.10;98.40;;;;;;4904393;29;20383;-81
2021/10/30 10:28:39;;;;;;;4.60;3.08;;;13.10;98.30;;;;;;4899674;29;20128;-80
2021/10/30 10:31:26;;;;;;;4.55;3.80;;;13.10;98.40;;;;;;4904019;29;20048;-81
2021/10/30 10:34:07;;;;;;;4.32;3.58;;;13.10;98.30;;;;;;4913479;29;20120;-81
2021/10/30 10:36:33;;;;;;;5.25;3.85;;;13.10;98.30;;;;;;4900693;29;20059;-81
2021/10/30 10:38:59;;;;;;;6.13;4.50;;;13.10;98.30;;;;;;4885150;29;20492;-82
2021/10/30 10:41:37;;;;;;;8.23;4.72;;;13.10;98.30;;;;;;4900634;29;20044;-83
2021/10/30 10:44:13;;;;;;;5.47;4.50;;;13.10;98.40;;;;;;4920257;29;20048;-80
2021/10/30 10:46:55;;;;;;;8.30;4.78;;;13.20;98.40;;;;;;4897891;29;20047;-81
2021/10/30 10:50:05;;;;;;;4.68;3.78;;;13.20;98.30;;;;;;4917881;29;20132;-82
2021/10/30 10:52:20;;;;;;;8.13;4.50;;;13.20;98.30;;;;;;4907062;29;20472;-82
2021/10/30 10:57:27;;;;;;;4.57;2.83;;;13.20;98.20;;;;;;4912866;29;20036;-83
2021/10/30 11:00:11;;;;;;;3.92;3.10;;;13.20;98.10;;;;;;4917215;29;20070;-82
2021/10/30 11:02:49;;;;;;;5.85;3.03;;;13.20;97.90;;;;;;4899961;29;20072;-81
2021/10/30 11:05:19;;;;;;;5.93;3.88;;;13.30;97.90;;;;;;4900201;29;20040;-83
2021/10/30 11:07:51;;;;;;;4.63;2.67;;;13.20;97.70;;;;;;4898082;29;20100;-84
2021/10/30 11:10:23;;;;;;;4.72;2.85;;;13.20;97.70;;;;;;4897151;29;20068;-82
2021/10/30 11:13:10;;;;;;;4.43;3.05;;;13.30;97.80;;;;;;4915704;29;20044;-83
2021/10/30 11:15:40;;;;;;;3.95;3.13;;;13.30;97.90;;;;;;4916260;29;20503;-81
2021/10/30 11:18:26;;;;;;;4.47;3.60;;;13.30;97.90;;;;;;4896132;29;20377;-81
2021/10/30 11:21:09;;;;;;;6.07;4.07;;;13.30;98.00;;;;;;4900224;29;20064;-82
2021/10/30 11:23:46;;;;;;;6.20;4.28;;;13.30;98.00;;;;;;4902707;29;20064;-81
2021/10/30 11:26:29;;;;;;;6.78;4.10;;;13.40;98.00;;;;;;4921772;29;20502;-83
2021/10/30 11:29:09;;;;;;;5.18;4.18;;;13.40;98.30;;;;;;4905413;29;20119;-82
2021/10/30 11:31:35;;;;;;;6.78;3.65;;;13.50;98.10;;;;;;4890303;29;20045;-82
2021/10/30 11:34:11;;;;;;;8.30;3.67;;;13.50;97.80;;;;;;4901097;29;20040;-82
2021/10/30 11:36:41;;;;;;;4.82;3.10;;;13.50;97.90;;;;;;4901077;29;20040;-81
2021/10/30 11:39:09;;;;;;;4.80;2.90;;;13.50;97.80;;;;;;4918412;29;20043;-82
2021/10/30 11:41:36;;;;;;;3.70;2.55;;;13.50;97.70;;;;;;4902520;29;20409;-81
2021/10/30 11:44:04;;;;;;;3.08;2.33;;;13.50;97.80;;;;;;4917381;29;20084;-83
2021/10/30 11:46:29;;;;;;;5.32;2.35;;;13.60;97.80;;;;;;4918540;29;20032;-81
2021/10/30 11:48:58;;;;;;;5.40;2.03;;;13.60;97.80;;;;;;4897004;29;20116;-82
2021/10/30 11:51:40;;;;;;;4.43;2.30;;;13.60;97.60;;;;;;4897532;29;20036;-82
2021/10/30 11:54:10;;;;;;;4.82;2.20;;;13.60;97.60;;;;;;4911949;29;20028;-82
2021/10/30 11:56:36;;;;;;;3.33;2.60;;;13.70;97.50;;;;;;4899495;29;20043;-82
2021/10/30 11:59:07;;;;;;;2.63;2.10;;;13.70;97.40;;;;;;4899205;29;20041;-82
2021/10/30 12:01:40;;;;;;;3.55;1.60;;;13.80;97.20;;;;;;4899335;29;20041;-82
2021/10/30 12:04:06;;;;;;;3.35;1.50;;;13.80;96.70;;;;;;4899268;29;20059;-82
2021/10/30 12:06:36;;;;;;;2.88;1.30;;;13.90;96.50;;;;;;4916308;29;20461;-82
2021/10/30 12:09:02;;;;;;;4.18;1.13;;;13.90;96.30;;;;;;4898301;29;20052;-81
2021/10/30 12:11:29;;;;;;;2.97;1.40;;;14.00;96.00;;;;;;4915884;29;20047;-82
2021/10/30 12:14:00;;;;;;;2.42;0.93;;;14.00;95.80;;;;;;4900199;29;20067;-83
2021/10/30 12:16:27;;;;;;;2.47;0.98;;;14.00;95.40;;;;;;4919492;29;20036;-82
2021/10/30 12:19:00;;;;;;;3.05;0.90;;;14.00;95.20;;;;;;4902303;29;20036;-82
2021/10/30 12:21:37;;;;;;;2.22;0.80;;;14.10;94.80;;;;;;4903035;29;20047;-81
2021/10/30 12:24:15;;;;;;;1.55;0.73;;;14.10;94.40;;;;;;4924919;29;20111;-81
2021/10/30 12:26:59;;;;;;;1.30;0.70;;;14.10;94.40;;;;;;4940515;29;20087;-82
2021/10/30 12:29:27;;;;;;;2.88;1.38;;;14.20;94.30;;;;;;4923360;29;20040;-81
2021/10/30 12:32:07;;;;;;;1.60;1.02;;;14.30;94.20;;;;;;4889698;29;20044;-81
2021/10/30 12:34:34;;;;;;;2.13;1.02;;;14.40;94.10;;;;;;4904308;29;20087;-81
2021/10/30 12:37:26;;;;;;;1.95;0.80;;;14.50;93.80;;;;;;4902815;29;20644;-81
2021/10/30 12:40:00;;;;;;;2.35;0.70;;;14.50;93.00;;;;;;4919665;29;20040;-81
2021/10/30 12:42:26;;;;;;;1.30;0.68;;;14.50;93.00;;;;;;4905033;29;20091;-80
2021/10/30 12:44:53;;;;;;;2.17;0.60;;;14.50;92.90;;;;;;4919038;29;20122;-81
2021/10/30 12:47:21;;;;;;;2.42;0.70;;;14.50;92.80;;;;;;4902195;29;20055;-79
2021/10/30 12:49:55;;;;;;;1.85;0.60;;;14.50;92.80;;;;;;4902421;29;20122;-80
2021/10/30 12:52:21;;;;;;;2.63;0.70;;;14.50;92.70;;;;;;4888405;29;20430;-80
2021/10/30 12:54:52;;;;;;;0.90;0.50;;;14.50;92.60;;;;;;4867672;29;20100;-81
2021/10/30 12:57:27;;;;;;;1.88;0.57;;;14.50;92.50;;;;;;4896323;29;20037;-80
2021/10/30 13:00:06;;;;;;;2.50;0.50;;;14.50;92.00;;;;;;4900170;29;20040;-80
2021/10/30 13:02:32;;;;;;;0.93;0.40;;;14.60;92.00;;;;;;4922829;29;20088;-80
2021/10/30 13:04:58;;;;;;;0.90;0.50;;;14.60;92.00;;;;;;4914408;29;20067;-79
2021/10/30 13:07:25;;;;;;;2.58;0.50;;;14.60;91.80;;;;;;4917164;29;20047;-80
2021/10/30 13:10:00;;;;;;;0.70;0.40;;;14.70;92.00;;;;;;4901874;29;20070;-79
2021/10/30 13:12:28;;;;;;;1.70;0.50;;;14.70;92.20;;;;;;4917766;29;20052;-79
2021/10/30 13:14:55;;;;;;;0.93;0.50;;;14.80;92.30;;;;;;4899237;29;20048;-80
2021/10/30 13:17:21;;;;;;;1.00;0.50;;;14.80;92.20;;;;;;4932718;29;20044;-80
2021/10/30 13:19:47;;;;;;;1.27;0.50;;;14.80;91.60;;;;;;4917465;29;20040;-81
2021/10/30 13:22:14;;;;;;;1.90;0.40;;;14.90;91.40;;;;;;4917778;29;20040;-80
2021/10/30 13:24:40;;;;;;;3.58;0.40;;;14.90;91.40;;;;;;4916797;29;20052;-79
2021/10/30 13:27:10;;;;;;;1.70;0.47;;;14.90;91.20;;;;;;4917491;29;20064;-83
2021/10/30 13:29:36;;;;;;;0.80;0.35;;;15.00;91.20;;;;;;4898641;29;20029;-80
2021/10/30 13:32:03;;;;;;;1.10;0.50;;;15.10;91.20;;;;;;4895363;29;20036;-80
2021/10/30 13:34:31;;;;;;;0.90;0.35;;;15.20;91.30;;;;;;4932852;29;20071;-79
2021/10/30 13:36:57;;;;;;;2.13;0.50;;;15.20;91.10;;;;;;4911688;29;20076;-81
2021/10/30 13:39:23;;;;;;;1.35;0.50;;;15.20;91.40;;;;;;4914720;29;20043;-81
2021/10/30 13:41:49;;;;;;;0.75;0.40;;;15.20;90.80;;;;;;4931190;29;20032;-81
2021/10/30 13:44:14;;;;;;;1.00;0.50;;;15.10;90.80;;;;;;4892795;29;20112;-79
2021/10/30 13:46:42;;;;;;;1.50;0.45;;;15.10;90.80;;;;;;4904886;29;20124;-80
2021/10/30 13:49:09;;;;;;;1.20;0.30;;;15.20;90.90;;;;;;4886449;29;20036;-82
2021/10/30 13:51:34;;;;;;;1.88;0.47;;;15.30;90.90;;;;;;4884672;29;20497;-81
2021/10/30 13:54:00;;;;;;;0.90;0.50;;;15.30;90.60;;;;;;4889393;29;20047;-80
2021/10/30 13:56:27;;;;;;;1.85;0.40;;;15.40;90.70;;;;;;4881084;29;20404;-81
2021/10/30 13:58:53;;;;;;;0.90;0.43;;;15.40;90.00;;;;;;4896739;29;20077;-80
2021/10/30 14:01:19;;;;;;;0.93;0.40;;;15.40;90.20;;;;;;4881752;29;20049;-81
2021/10/30 14:03:45;;;;;;;1.17;0.40;;;15.40;90.00;;;;;;4899556;29;20071;-82
2021/10/30 14:06:11;;;;;;;0.80;0.30;;;15.40;90.10;;;;;;4899732;29;20060;-81
2021/10/30 14:08:37;;;;;;;1.67;0.50;;;15.50;90.20;;;;;;4896276;29;20051;-81
2021/10/30 14:11:04;;;;;;;1.40;0.50;;;15.50;90.00;;;;;;4899359;29;20032;-82
2021/10/30 14:13:30;;;;;;;1.42;0.40;;;15.50;89.40;;;;;;4896410;29;20052;-81
2021/10/30 14:15:56;;;;;;;1.00;0.40;;;15.50;89.90;;;;;;4897778;29;20044;-82
2021/10/30 14:18:27;;;;;;;1.58;0.40;;;15.40;88.80;;;;;;4899194;29;20060;-81
2021/10/30 14:20:57;;;;;;;1.50;0.50;;;15.40;89.30;;;;;;4894030;29;20488;-82
2021/10/30 14:23:23;;;;;;;2.55;0.50;;;15.40;89.50;;;;;;4885984;29;20107;-82
2021/10/30 14:25:49;;;;;;;0.95;0.40;;;15.30;88.70;;;;;;4886254;29;20036;-82
2021/10/30 14:28:14;;;;;;;2.30;0.90;;;15.30;89.00;;;;;;4893597;29;20053;-82
2021/10/30 14:30:40;;;;;;;1.20;0.50;;;15.30;89.90;;;;;;4895622;29;20040;-83
2021/10/30 14:33:06;;;;;;;1.65;0.40;;;15.30;89.50;;;;;;4866661;29;20075;-82
2021/10/30 14:35:32;;;;;;;1.40;0.40;;;15.30;88.70;;;;;;4882236;29;20044;-82
2021/10/30 14:37:57;;;;;;;1.50;0.50;;;15.20;88.40;;;;;;4899489;29;20047;-82
2021/10/30 14:40:23;;;;;;;2.20;0.60;;;15.30;89.20;;;;;;4883982;29;20496;-83
2021/10/30 14:42:49;;;;;;;2.65;0.70;;;15.20;88.60;;;;;;4884175;29;20036;-82
2021/10/30 14:45:20;;;;;;;0.65;0.40;;;15.30;89.40;;;;;;4899138;29;20656;-82
2021/10/30 14:47:46;;;;;;;2.00;0.50;;;15.30;88.70;;;;;;4885594;29;20043;-81
2021/10/30 14:50:11;;;;;;;4.32;0.50;;;15.30;89.30;;;;;;4899384;29;20036;-82
2021/10/30 14:52:37;;;;;;;0.93;0.40;;;15.30;89.30;;;;;;4883990;29;20123;-83
2021/10/30 14:55:03;;;;;;;2.40;0.40;;;15.30;88.10;;;;;;4895418;29;20056;-82
2021/10/30 14:57:32;;;;;;;2.20;0.50;;;15.20;88.50;;;;;;4899269;29;20096;-82
2021/10/30 14:59:57;;;;;;;1.55;0.40;;;15.20;89.10;;;;;;4868770;29;20040;-82
2021/10/30 15:02:23;;;;;;;1.50;0.50;;;15.20;88.40;;;;;;4883927;29;20139;-81
2021/10/30 15:04:49;;;;;;;0.88;0.50;;;15.10;89.50;;;;;;4916141;29;20032;-82
2021/10/30 15:07:15;;;;;;;2.67;0.50;;;15.10;89.50;;;;;;4898842;29;20119;-82
2021/10/30 15:09:40;;;;;;;0.60;0.40;;;15.10;89.60;;;;;;4884112;29;20068;-81
2021/10/30 15:12:06;;;;;;;1.10;0.50;;;15.00;89.40;;;;;;4898981;29;20052;-81
2021/10/30 15:14:32;;;;;;;2.83;0.65;;;15.00;89.80;;;;;;4899322;29;20139;-81
2021/10/30 15:16:58;;;;;;;1.13;0.50;;;15.00;89.90;;;;;;4915952;29;20116;-81
2021/10/30 15:19:25;;;;;;;0.98;0.60;;;14.90;90.40;;;;;;4880544;29;20051;-81
2021/10/30 15:21:51;;;;;;;2.03;0.70;;;14.90;90.00;;;;;;4897615;29;20119;-81
2021/10/30 15:24:17;;;;;;;0.85;0.50;;;14.90;90.10;;;;;;4896812;29;20037;-83
2021/10/30 15:26:43;;;;;;;3.13;1.35;;;14.90;89.70;;;;;;4887539;29;20047;-81
2021/10/30 15:29:09;;;;;;;3.03;1.40;;;14.90;90.00;;;;;;4918501;29;20068;-83
2021/10/30 15:31:35;;;;;;;1.90;0.98;;;14.80;90.10;;;;;;4884579;29;20045;-80
2021/10/30 15:34:04;;;;;;;3.72;1.25;;;14.90;90.00;;;;;;4925180;29;20028;-82
2021/10/30 15:36:31;;;;;;;2.70;1.20;;;14.80;90.00;;;;;;4916542;29;20036;-82
2021/10/30 15:38:57;;;;;;;1.50;0.68;;;14.80;90.10;;;;;;4884223;29;20048;-80
2021/10/30 15:41:24;;;;;;;1.92;1.02;;;14.80;90.30;;;;;;4899897;29;20481;-82
2021/10/30 15:43:51;;;;;;;1.55;0.75;;;14.70;90.40;;;;;;4916917;29;20454;-82
2021/10/30 15:46:16;;;;;;;2.88;1.88;;;14.70;90.40;;;;;;4916881;29;20039;-82
2021/10/30 15:48:42;;;;;;;4.55;3.20;;;14.70;90.70;;;;;;4901627;29;20111;-81
2021/10/30 15:51:08;;;;;;;10.43;5.28;;;14.70;90.80;;;;;;4921366;29;20492;-81
2021/10/30 15:53:34;;;;;;;2.63;0.80;;;14.70;91.10;;;;;;4904157;29;20044;-82
2021/10/30 15:56:00;;;;;;;13.35;5.68;;;14.60;90.80;;;;;;4904341;29;20051;-81
2021/10/30 15:58:26;;;;;;;14.68;8.18;;;14.70;91.10;;;;;;4904359;29;20100;-82
2021/10/30 16:00:52;;;;;;;6.82;2.08;;;14.70;91.40;;;;;;4923768;29;20046;-81
2021/10/30 16:03:18;;;;;;;1.42;0.80;;;14.70;91.20;;;;;;4905977;29;20084;-81
2021/10/30 16:05:44;;;;;;;5.18;2.00;;;14.70;91.00;;;;;;4905086;29;20055;-84
2021/10/30 16:08:10;;;;;;;5.35;1.98;;;14.70;91.10;;;;;;4905483;29;20575;-82
2021/10/30 16:10:37;;;;;;;5.93;2.70;;;14.70;91.30;;;;;;4906901;29;20043;-82
2021/10/30 16:13:06;;;;;;;4.80;1.95;;;14.70;91.40;;;;;;4906648;29;20115;-82
2021/10/30 16:15:33;;;;;;;6.68;2.38;;;14.60;91.30;;;;;;4920211;29;20033;-82
2021/10/30 16:18:02;;;;;;;4.82;2.25;;;14.60;91.20;;;;;;4919251;29;20040;-83
2021/10/30 16:20:28;;;;;;;6.82;3.50;;;14.70;91.40;;;;;;4902517;29;20047;-83
2021/10/30 16:22:54;;;;;;;2.28;0.65;;;14.70;91.60;;;;;;4887567;29;20163;-81
2021/10/30 16:25:20;;;;;;;3.00;1.70;;;14.70;91.50;;;;;;4918511;29;20040;-82
2021/10/30 16:27:47;;;;;;;1.83;1.15;;;14.70;91.60;;;;;;4901959;29;20058;-82
2021/10/30 16:30:13;;;;;;;5.65;2.97;;;14.60;91.70;;;;;;4901060;29;20036;-81
2021/10/30 16:32:40;;;;;;;3.85;1.83;;;14.60;91.70;;;;;;4886070;29;20138;-81
2021/10/30 16:35:07;;;;;;;3.45;1.33;;;14.60;91.90;;;;;;4901728;29;20040;-82
2021/10/30 16:37:33;;;;;;;2.40;1.40;;;14.60;91.90;;;;;;4901367;29;20152;-80
2021/10/30 16:39:59;;;;;;;1.80;0.70;;;14.60;92.00;;;;;;4886177;29;20044;-81
2021/10/30 16:42:25;;;;;;;2.50;1.45;;;14.50;92.10;;;;;;4870097;29;20140;-81
2021/10/30 16:44:51;;;;;;;1.63;0.88;;;14.50;92.20;;;;;;4918842;29;20041;-82
2021/10/30 16:47:18;;;;;;;1.60;0.95;;;14.50;92.20;;;;;;4900705;29;20488;-82
2021/10/30 16:49:44;;;;;;;3.22;1.40;;;14.50;92.30;;;;;;4918109;29;20047;-81
2021/10/30 16:52:12;;;;;;;2.05;1.27;;;14.50;92.40;;;;;;4885073;29;20040;-81
2021/10/30 16:54:38;;;;;;;2.35;1.02;;;14.50;92.50;;;;;;4917992;29;20176;-81
2021/10/30 16:57:04;;;;;;;2.53;1.60;;;14.50;92.60;;;;;;4885611;29;20563;-80
2021/10/30 16:59:33;;;;;;;3.92;0.80;;;14.40;92.70;;;;;;4869642;29;20276;-81
2021/10/30 17:01:59;;;;;;;3.03;1.20;;;14.40;92.80;;;;;;4900335;29;20040;-80
2021/10/30 17:04:25;;;;;;;2.38;1.40;;;14.40;92.90;;;;;;4917156;29;20385;-81
2021/10/30 17:06:51;;;;;;;1.98;1.20;;;14.40;93.00;;;;;;4918474;29;20047;-83
2021/10/30 17:09:16;;;;;;;5.05;2.65;;;14.40;93.00;;;;;;4885423;29;20036;-82
2021/10/30 17:11:42;;;;;;;2.47;1.90;;;14.40;93.10;;;;;;4870353;29;20036;-81
2021/10/30 17:14:08;;;;;;;2.03;1.00;;;14.40;93.20;;;;;;4885008;29;20080;-83
2021/10/30 17:16:35;;;;;;;2.30;1.40;;;14.40;93.20;;;;;;4901361;29;20052;-83
2021/10/30 17:19:01;;;;;;;2.97;2.22;;;14.40;93.20;;;;;;4901644;29;20048;-82
2021/10/30 17:21:27;;;;;;;3.72;2.33;;;14.40;93.30;;;;;;4884921;29;20135;-82
2021/10/30 17:23:54;;;;;;;5.95;3.35;;;14.40;93.40;;;;;;4886154;29;20481;-80
2021/10/30 17:26:20;;;;;;;7.90;4.60;;;14.40;93.50;;;;;;4903802;29;20046;-82
2021/10/30 17:28:47;;;;;;;4.10;2.00;;;14.40;93.60;;;;;;4920862;29;20083;-82
2021/10/30 17:31:12;;;;;;;3.08;2.00;;;14.40;93.80;;;;;;4885284;29;20036;-81
2021/10/30 17:33:38;;;;;;;3.33;2.42;;;14.40;93.90;;;;;;4899817;29;20444;-82
2021/10/30 17:36:04;;;;;;;2.45;1.73;;;14.30;94.00;;;;;;4917976;29;20048;-81
2021/10/30 17:38:32;;;;;;;3.00;1.45;;;14.30;94.10;;;;;;4917306;29;20044;-82
2021/10/30 17:40:58;;;;;;;2.75;1.92;;;14.30;94.20;;;;;;4900889;29;20047;-83
2021/10/30 17:43:24;;;;;;;4.28;2.58;;;14.30;94.20;;;;;;4885069;29;20047;-83
2021/10/30 17:45:50;;;;;;;3.33;1.50;;;14.30;94.30;;;;;;4900644;29;20028;-82
2021/10/30 17:48:15;;;;;;;4.07;2.35;;;14.30;94.40;;;;;;4884874;29;20055;-82
2021/10/30 17:50:43;;;;;;;3.08;1.90;;;14.30;94.40;;;;;;4916222;29;20036;-82
2021/10/30 17:53:09;;;;;;;4.03;2.38;;;14.30;94.50;;;;;;4900884;29;20043;-82
2021/10/30 17:55:38;;;;;;;3.92;2.13;;;14.30;94.50;;;;;;4899434;29;20046;-81
2021/10/30 17:58:04;;;;;;;1.90;1.10;;;14.30;94.60;;;;;;4900203;29;20492;-82
2021/10/30 18:00:30;;;;;;;2.78;1.48;;;14.30;94.50;;;;;;4899043;29;20530;-82
2021/10/30 18:02:56;;;;;;;3.28;1.90;;;14.30;94.50;;;;;;4898820;29;20040;-81
2021/10/30 18:05:31;;;;;;;4.40;3.15;;;14.30;94.60;;;;;;4901931;29;20040;-82
2021/10/30 18:07:57;;;;;;;4.40;2.60;;;14.30;94.60;;;;;;4900484;29;20480;-81
2021/10/30 18:10:23;;;;;;;2.20;2.00;;;14.30;94.60;;;;;;4885933;29;20047;-81
2021/10/30 18:12:49;;;;;;;3.92;2.28;;;14.30;94.70;;;;;;4900813;29;20048;-81
2021/10/30 18:15:15;;;;;;;5.43;3.20;;;14.30;94.80;;;;;;4900975;29;20048;-83
2021/10/30 18:17:41;;;;;;;3.42;2.65;;;14.30;94.90;;;;;;4917028;29;20036;-82
2021/10/30 18:20:09;;;;;;;4.43;2.70;;;14.30;95.10;;;;;;4900676;29;20044;-82
2021/10/30 18:22:35;;;;;;;3.33;1.92;;;14.20;95.20;;;;;;4900928;29;20040;-81
2021/10/30 18:25:03;;;;;;;5.07;3.50;;;14.20;95.40;;;;;;4885109;29;20139;-82
2021/10/30 18:27:29;;;;;;;3.30;2.47;;;14.10;95.70;;;;;;4883006;29;20049;-82
2021/10/30 18:29:55;;;;;;;3.50;2.72;;;14.10;95.80;;;;;;4866749;29;20051;-81
2021/10/30 18:32:21;;;;;;;4.25;2.97;;;14.10;95.90;;;;;;4886300;29;20040;-81
2021/10/30 18:34:47;;;;;;;5.03;3.15;;;14.10;96.00;;;;;;4917282;29;20733;-81
2021/10/30 18:37:13;;;;;;;11.10;8.73;;;14.10;96.10;;;;;;4901094;29;20044;-82
2021/10/30 18:39:39;;;;;;;3.15;2.40;;;14.10;96.20;;;;;;4917474;29;20040;-82
2021/10/30 18:42:06;;;;;;;6.05;4.97;;;14.10;96.30;;;;;;4900760;29;20389;-82
2021/10/30 18:44:32;;;;;;;10.23;7.93;;;14.10;96.30;;;;;;4899456;29;20028;-81
2021/10/30 18:46:58;;;;;;;13.40;9.38;;;14.10;96.30;;;;;;4884520;29;20144;-81
2021/10/30 18:49:23;;;;;;;9.02;7.03;;;14.10;96.30;;;;;;4916386;29;20123;-84
2021/10/30 18:51:49;;;;;;;12.32;9.48;;;14.20;96.30;;;;;;4899755;29;20493;-80
2021/10/30 18:54:15;;;;;;;9.82;7.35;;;14.20;96.30;;;;;;4899559;29;20069;-82
2021/10/30 18:56:40;;;;;;;10.23;7.80;;;14.20;96.30;;;;;;4884384;29;20121;-81
2021/10/30 18:59:08;;;;;;;5.65;4.57;;;14.20;96.40;;;;;;4900101;29;20036;-81
2021/10/30 19:01:35;;;;;;;7.25;5.88;;;14.20;96.40;;;;;;4884340;29;20040;-82
2021/10/30 19:04:01;;;;;;;7.18;4.35;;;14.20;96.60;;;;;;4900176;29;20032;-82
2021/10/30 19:06:27;;;;;;;11.20;9.02;;;14.10;96.40;;;;;;4899818;29;20480;-83
2021/10/30 19:08:52;;;;;;;16.25;12.50;;;14.20;96.50;;;;;;4900096;29;20070;-82
2021/10/30 19:11:19;;;;;;;7.53;5.78;;;14.20;96.50;;;;;;4915296;29;20196;-82
2021/10/30 19:13:45;;;;;;;14.57;12.07;;;14.20;96.50;;;;;;4899402;29;20059;-83
2021/10/30 19:16:12;;;;;;;10.60;7.88;;;14.20;96.50;;;;;;4900141;29;20123;-82
2021/10/30 19:18:37;;;;;;;112.35;81.55;;;14.20;96.50;;;;;;4884080;29;20563;-81
2021/10/30 19:21:04;;;;;;;54.88;44.60;;;14.20;96.50;;;;;;4900504;29;20048;-82
2021/10/30 19:23:31;;;;;;;28.60;21.45;;;14.20;96.50;;;;;;4885321;29;20120;-82
2021/10/30 19:25:57;;;;;;;17.00;13.60;;;14.30;96.50;;;;;;4904203;29;20455;-82
2021/10/30 19:28:25;;;;;;;19.88;15.10;;;14.30;96.50;;;;;;4904174;29;20040;-82
2021/10/30 19:30:54;;;;;;;23.38;18.90;;;14.30;96.40;;;;;;4877467;29;20051;-80
2021/10/30 19:33:20;;;;;;;22.60;17.70;;;14.30;96.40;;;;;;4904698;29;20469;-82
2021/10/30 19:35:45;;;;;;;25.77;19.75;;;14.30;96.50;;;;;;4904393;29;20042;-82
2021/10/30 19:38:12;;;;;;;28.23;21.17;;;14.30;96.30;;;;;;4921801;29;20124;-83
2021/10/30 19:40:39;;;;;;;21.02;16.20;;;14.30;96.30;;;;;;4926496;29;20045;-80